• Join FlightAware (Why Join?)
  • Login
  • US Flag 
11:23PM EDT


 

Airport Tracker/Info


-or-


 

Live Flight TrackerFlight Track Log ✈ DAL6234 ✈ 2013年 04月 25日 ✈ KLGA - KSYR

Flight Track Log - Related Links

Times and Time Zones

All times are in EDT time to prevent confusion due to time zone crossing. See the DAL6234 flight status page for this flight to view local times or setup timezone preferences in your user account.

Time Position Orientation Groundspeed Altitude Reporting Facility
EDT Latitude Longitude Course Direction KTS MPH feet Rate Location/Type
05:00PM 40.8000 -73.8500 27° Northeast 156 180 1,600  Level New York TRACON
05:01PM 40.8500 -73.8167 27° Northeast 211 243 3,600 2,220 Climbing New York TRACON
05:02PM 40.9167 -73.8500 339° North 262 302 6,100 2,820 Climbing New York TRACON
05:03PM 40.9500 -73.9333 298° West 256 295 9,400 2,820 Climbing New York TRACON
05:04PM 40.9833 -74.0167 298° West 275 316 11,900 2,040 Climbing New York TRACON
05:06PM 41.0736 -74.2281 300° West 318 366 16,000 1,260 Climbing New York Center
05:07PM 41.1203 -74.3322 301° West 329 379 16,000  Level New York Center
05:08PM 41.1672 -74.4394 300° West 334 384 16,000 120 Level New York Center
05:09PM 41.2117 -74.5439 300° West 334 384 16,300 960 Climbing New York Center
05:10PM 41.2628 -74.6353 307° West 341 392 18,000 1,680 Climbing New York Center
05:11PM 41.3219 -74.7353 308° West 346 398 19,800 1,800 Climbing New York Center
05:12PM 41.3875 -74.8358 311° West 358 412 21,600 1,080 Climbing New York Center
05:13PM 41.4525 -74.9394 310° West 358 412 22,000 180 Climbing New York Center
05:14PM 41.5194 -75.0461 310° West 363 418 22,000  Level New York Center
05:15PM 41.5844 -75.1500 310° West 363 418 22,000  Level New York Center
05:16PM 41.6450 -75.2539 308° West 363 418 22,000  Level New York Center
05:17PM 41.7075 -75.3611 308° West 363 418 22,000  Level New York Center
05:18PM 41.7681 -75.4653 308° West 358 412 22,000  Level New York Center
05:19PM 41.8306 -75.5728 308° West 358 412 22,000  Level New York Center
05:20PM 41.8928 -75.6775 309° West 358 412 22,000 -180 Level New York Center
05:21PM 41.9531 -75.7822 308° West 358 412 21,700 -960 Descending New York Center
05:22PM 42.0128 -75.8900 307° West 358 412 20,100 -1,620 Descending New York Center
05:23PM 42.0750 -75.9928 309° West 358 412 18,500 -1,500 Descending New York Center
05:24PM 42.1311 -76.0922 307° West 353 406 17,100 -1,500 Descending New York Center
05:25PM 42.2164 -76.1383 338° Northwest 327 376 15,500 -1,560 Descending New York Center
05:26PM 42.3192 -76.1214 North 332 382 14,000 -1,260 Descending New York Center
05:28PM 42.5333 -76.0978 North 352 405 11,700 -1,080 Descending Boston Center
05:29PM 42.6294 -76.0864 North 342 394 10,700 -1,200 Descending Boston Center
05:31PM 42.7231 -76.0947 356° North 277 319 9,200 -1,560 Descending Boston Center
05:32PM 42.8000 -76.0992 358° North 278 320 7,500 -1,680 Descending Boston Center
05:33PM 42.8697 -76.0722 16° North 286 329 6,000 -1,260 Descending Boston Center
05:34PM 42.9417 -76.0425 17° North 265 305 5,100 -1,140 Descending Boston Center
05:35PM 43.0192 -76.0272 North 241 277 3,700 -1,380 Descending Boston Center
05:36PM 43.0689 -76.0358 353° North 203 234 2,400 -1,440 Descending Boston Center
05:37PM 43.1117 -76.0725 328° Northwest 143 165 900 -1,380 Descending Boston Center